Time;durP1;ratioP1;P1;durP2;ratioP2;P2;SDS_P1;SDS_P2;PMS_P1;PMS_P2;Temp;Humidity;BMP_temperature;BMP_pressure;BME280_temperature;BME280_humidity;BME280_pressure;Samples;Min_cycle;Max_cycle;Signal;HPM_P1;HPM_P2
2023/01/05 00:02:34;;;;;;;16.42;4.97;;;11.10;99.90;;;;;;20492499;28;20620;-41
2023/01/05 00:22:55;;;;;;;21.95;5.50;;;11.00;99.90;;;;;;20516527;28;20047;-42
2023/01/05 00:32:56;;;;;;;9.32;2.95;;;11.10;99.90;;;;;;20510512;28;20047;-42
2023/01/05 00:42:57;;;;;;;7.93;2.42;;;11.10;99.90;;;;;;20503380;28;20090;-42
2023/01/05 00:52:58;;;;;;;7.60;2.28;;;11.10;99.90;;;;;;20505206;28;20046;-42
2023/01/05 01:02:59;;;;;;;22.38;3.63;;;11.00;99.90;;;;;;20493219;28;20027;-42
2023/01/05 01:13:00;;;;;;;13.70;4.28;;;10.80;99.90;;;;;;20511105;28;20049;-42
2023/01/05 01:23:02;;;;;;;11.68;3.45;;;10.80;99.90;;;;;;20503384;28;20573;-42
2023/01/05 01:33:03;;;;;;;10.15;3.05;;;10.80;99.90;;;;;;20494703;28;20129;-42
2023/01/05 01:43:12;;;;;;;7.30;3.28;;;10.90;99.90;;;;;;20510164;28;20050;-42
2023/01/05 01:53:30;;;;;;;9.13;3.22;;;10.90;99.90;;;;;;20518451;28;20050;-42
2023/01/05 02:03:31;;;;;;;8.18;2.97;;;11.00;99.90;;;;;;20511960;28;20903;-42
2023/01/05 02:14:05;;;;;;;9.25;3.00;;;11.00;99.90;;;;;;20522610;28;20101;-41
2023/01/05 02:24:15;;;;;;;8.70;3.85;;;10.80;99.90;;;;;;20500958;28;20630;-42
2023/01/05 02:34:43;;;;;;;21.58;3.22;;;10.80;99.90;;;;;;20489158;28;20916;-42
2023/01/05 02:44:44;;;;;;;;;;;10.80;99.90;;;;;;20488913;28;20950;-41
2023/01/05 02:55:04;;;;;;;5.80;2.00;;;10.90;99.90;;;;;;20496421;28;20537;-42
2023/01/05 03:05:13;;;;;;;7.53;1.95;;;10.80;99.90;;;;;;20494315;28;20066;-42
2023/01/05 03:15:19;;;;;;;8.10;2.25;;;10.80;99.90;;;;;;20501741;28;20577;-42
2023/01/05 03:35:44;;;;;;;4.95;1.92;;;10.80;99.90;;;;;;20490771;28;21730;-42
2023/01/05 03:45:51;;;;;;;7.97;2.25;;;10.70;99.90;;;;;;20503713;28;20071;-42
2023/01/05 03:55:52;;;;;;;16.27;4.00;;;10.70;99.90;;;;;;20508404;28;20882;-42
2023/01/05 04:05:53;;;;;;;10.20;3.53;;;10.70;99.90;;;;;;20511304;28;20482;-42
2023/01/05 04:15:54;;;;;;;7.63;2.58;;;10.80;99.90;;;;;;20512122;28;20066;-42
2023/01/05 04:25:55;;;;;;;14.57;3.47;;;10.90;99.90;;;;;;20484211;28;20093;-42
2023/01/05 04:35:56;;;;;;;4.18;1.40;;;10.90;99.90;;;;;;20515261;28;20051;-42
2023/01/05 04:45:57;;;;;;;5.72;2.33;;;10.90;99.90;;;;;;20506054;28;20070;-42
2023/01/05 04:55:58;;;;;;;7.65;3.90;;;10.80;99.90;;;;;;20504451;28;20047;-42
2023/01/05 05:06:00;;;;;;;6.00;2.28;;;10.70;99.90;;;;;;20509473;28;20034;-41
2023/01/05 05:16:01;;;;;;;9.95;3.67;;;10.70;99.90;;;;;;20504471;28;20081;-42
2023/01/05 05:26:02;;;;;;;17.58;3.70;;;10.60;99.90;;;;;;20503869;28;20673;-41
2023/01/05 05:36:05;;;;;;;4.75;2.10;;;10.70;99.90;;;;;;20501631;28;20058;-41
2023/01/05 05:46:06;;;;;;;9.52;2.47;;;10.70;99.90;;;;;;20505213;28;20386;-42
2023/01/05 05:56:07;;;;;;;11.35;3.33;;;10.70;99.90;;;;;;20499289;28;20074;-41
2023/01/05 06:06:08;;;;;;;5.22;2.10;;;10.60;99.90;;;;;;20504393;28;20097;-40
2023/01/05 06:16:09;;;;;;;7.10;2.60;;;10.80;99.90;;;;;;20520453;28;20046;-41
2023/01/05 06:26:10;;;;;;;11.30;3.60;;;10.70;99.90;;;;;;20496399;28;20058;-42
2023/01/05 06:36:11;;;;;;;12.73;3.72;;;10.80;99.90;;;;;;20501279;28;20290;-42
2023/01/05 06:46:12;;;;;;;7.38;2.38;;;10.90;99.90;;;;;;20500953;28;20026;-41
2023/01/05 06:56:13;;;;;;;7.07;2.10;;;10.90;99.90;;;;;;20497644;28;20063;-41
2023/01/05 07:06:15;;;;;;;12.10;3.03;;;10.70;99.90;;;;;;20496042;28;20079;-42
2023/01/05 07:16:17;;;;;;;3.80;1.58;;;10.70;99.90;;;;;;20480758;28;20959;-42
2023/01/05 07:26:18;;;;;;;6.70;1.90;;;10.40;99.90;;;;;;20513613;28;20513;-41
2023/01/05 07:36:19;;;;;;;13.10;3.92;;;10.40;99.90;;;;;;20507368;28;20590;-42
2023/01/05 07:46:20;;;;;;;11.77;3.58;;;10.40;99.90;;;;;;20509543;28;20133;-42
2023/01/05 07:56:21;;;;;;;12.82;4.75;;;10.40;99.90;;;;;;20505412;28;20113;-41
2023/01/05 08:06:23;;;;;;;6.97;1.70;;;10.40;99.90;;;;;;20504703;28;20126;-41
2023/01/05 08:16:25;;;;;;;5.80;2.40;;;10.40;99.90;;;;;;20510366;28;20128;-42
2023/01/05 08:26:26;;;;;;;11.75;3.00;;;10.30;99.90;;;;;;20510862;28;20757;-42
2023/01/05 08:36:27;;;;;;;8.90;2.95;;;10.30;99.90;;;;;;20496724;28;20582;-41
2023/01/05 08:46:33;;;;;;;12.90;3.65;;;10.40;99.90;;;;;;20515249;28;20055;-41
2023/01/05 08:56:34;;;;;;;6.10;2.53;;;10.30;99.90;;;;;;20486190;28;21407;-41
2023/01/05 09:06:35;;;;;;;13.40;3.40;;;10.50;99.90;;;;;;20415916;28;21729;-42
2023/01/05 09:16:36;;;;;;;12.38;3.42;;;10.50;99.90;;;;;;20469846;28;20066;-42
2023/01/05 09:26:37;;;;;;;12.57;3.17;;;10.50;99.90;;;;;;20429626;28;20113;-42
2023/01/05 09:36:38;;;;;;;14.07;3.55;;;10.60;99.90;;;;;;20475993;28;20514;-41
2023/01/05 09:46:45;;;;;;;4.80;1.60;;;10.60;99.90;;;;;;20461022;28;20101;-41
2023/01/05 09:56:48;;;;;;;10.60;3.65;;;10.70;99.90;;;;;;20468226;28;20047;-42
2023/01/05 10:06:53;;;;;;;6.25;2.28;;;10.80;99.90;;;;;;20483682;28;20138;-41
2023/01/05 10:16:56;;;;;;;9.40;2.83;;;10.80;99.90;;;;;;20493502;28;20050;-41
2023/01/05 10:27:19;;;;;;;9.77;2.35;;;10.90;99.90;;;;;;20476279;28;20081;-41
2023/01/05 10:37:30;;;;;;;5.55;1.80;;;11.10;99.90;;;;;;20470263;28;21919;-42
2023/01/05 10:47:36;;;;;;;8.57;2.35;;;11.10;99.90;;;;;;20475055;28;20077;-41
2023/01/05 10:57:39;;;;;;;8.85;2.20;;;11.20;99.90;;;;;;20492297;28;20662;-41
2023/01/05 11:08:13;;;;;;;17.08;2.97;;;11.10;99.90;;;;;;20443623;28;20610;-41
2023/01/05 11:18:52;;;;;;;11.25;2.95;;;11.20;99.90;;;;;;20493258;28;20051;-41
2023/01/05 11:29:11;;;;;;;13.40;3.92;;;11.40;99.90;;;;;;20498304;28;20886;-41
2023/01/05 11:39:22;;;;;;;8.02;3.13;;;11.50;99.90;;;;;;20534299;28;20461;-42
2023/01/05 11:49:24;;;;;;;8.65;1.92;;;11.70;99.90;;;;;;20526337;28;20902;-41
2023/01/05 11:59:28;;;;;;;9.77;3.30;;;11.80;99.90;;;;;;20530091;28;20129;-41
2023/01/05 12:09:36;;;;;;;10.07;4.10;;;12.50;99.90;;;;;;20451539;28;20051;-41
2023/01/05 12:20:24;;;;;;;11.40;4.33;;;13.30;96.20;;;;;;20495944;28;20902;-42
2023/01/05 12:30:40;;;;;;;11.70;4.50;;;13.60;93.70;;;;;;20480370;28;20865;-41
2023/01/05 12:41:02;;;;;;;12.68;4.15;;;13.10;95.40;;;;;;20488215;28;20909;-41
2023/01/05 12:51:13;;;;;;;10.38;2.20;;;13.20;94.80;;;;;;20499733;28;20542;-41
2023/01/05 13:01:22;;;;;;;4.95;2.33;;;12.60;97.10;;;;;;20499951;28;20070;-42
2023/01/05 13:11:37;;;;;;;3.92;1.83;;;12.20;99.20;;;;;;20460007;28;20805;-42
2023/01/05 13:21:42;;;;;;;4.20;1.70;;;12.10;99.60;;;;;;20461837;28;20644;-42
2023/01/05 13:31:50;;;;;;;6.65;2.33;;;11.90;99.90;;;;;;20481827;28;20086;-41
2023/01/05 13:42:16;;;;;;;7.28;3.00;;;11.90;99.90;;;;;;20464044;28;20122;-42
2023/01/05 13:52:31;;;;;;;13.43;4.20;;;11.80;99.90;;;;;;20486156;28;21370;-42
2023/01/05 14:02:44;;;;;;;22.35;3.85;;;11.80;99.90;;;;;;20474449;28;20340;-42
2023/01/05 14:12:48;;;;;;;10.10;3.78;;;11.70;99.90;;;;;;20470130;28;21680;-42
2023/01/05 14:22:49;;;;;;;5.10;1.90;;;11.60;99.90;;;;;;20470283;28;20145;-41
2023/01/05 14:32:53;;;;;;;9.05;3.58;;;11.50;99.90;;;;;;20471981;28;20141;-41
2023/01/05 14:42:55;;;;;;;12.27;3.58;;;11.40;99.90;;;;;;20484316;28;20129;-42
2023/01/05 14:53:34;;;;;;;9.73;3.78;;;11.40;99.90;;;;;;20496931;28;20862;-42
2023/01/05 15:03:42;;;;;;;13.25;3.63;;;11.20;99.90;;;;;;20485826;28;20077;-42
2023/01/05 15:24:40;;;;;;;9.00;3.03;;;11.10;99.90;;;;;;20474367;28;20734;-41
2023/01/05 15:34:53;;;;;;;10.45;3.22;;;10.90;99.90;;;;;;20461565;28;20787;-42
2023/01/05 15:44:56;;;;;;;5.05;2.83;;;10.90;99.90;;;;;;20481812;28;20134;-42
2023/01/05 15:55:00;;;;;;;9.75;2.63;;;10.80;99.90;;;;;;20494469;28;20137;-41
2023/01/05 16:05:22;;;;;;;8.57;2.70;;;10.70;99.90;;;;;;20495675;28;20039;-42
2023/01/05 16:15:24;;;;;;;7.03;1.77;;;10.60;99.90;;;;;;20500228;28;20890;-41
2023/01/05 16:25:28;;;;;;;6.82;2.20;;;10.40;99.90;;;;;;20507246;28;20462;-41
2023/01/05 16:35:33;;;;;;;4.05;1.48;;;10.20;99.90;;;;;;20543015;28;20136;-41
2023/01/05 16:45:35;;;;;;;6.90;2.45;;;10.10;99.90;;;;;;20542877;28;20451;-41
2023/01/05 16:55:37;;;;;;;13.15;3.35;;;10.10;99.90;;;;;;20534192;28;20043;-40
2023/01/05 17:05:38;;;;;;;9.45;3.83;;;10.10;99.90;;;;;;20511405;28;20084;-40
2023/01/05 17:15:43;;;;;;;12.73;4.25;;;10.00;99.90;;;;;;20496350;28;20283;-40
2023/01/05 17:25:44;;;;;;;10.05;4.50;;;10.00;99.90;;;;;;20473462;28;20078;-41
2023/01/05 17:35:46;;;;;;;13.55;6.03;;;10.10;99.90;;;;;;20519346;28;20050;-41
2023/01/05 17:45:47;;;;;;;10.77;4.43;;;10.10;99.90;;;;;;20498386;28;20146;-41
2023/01/05 17:55:48;;;;;;;9.57;4.75;;;10.20;99.90;;;;;;20494028;28;20145;-42
2023/01/05 18:05:51;;;;;;;8.20;5.20;;;10.30;99.90;;;;;;20504085;28;20113;-41
2023/01/05 18:15:54;;;;;;;8.25;5.05;;;10.40;99.90;;;;;;20492098;28;20146;-41
2023/01/05 18:25:55;;;;;;;12.18;5.80;;;10.40;99.90;;;;;;20489158;28;20420;-40
2023/01/05 18:35:56;;;;;;;9.00;5.35;;;10.50;99.90;;;;;;20496686;28;20132;-40
2023/01/05 18:45:57;;;;;;;12.25;6.68;;;10.70;99.90;;;;;;20521043;28;20051;-40
2023/01/05 18:55:58;;;;;;;11.02;4.50;;;10.70;99.90;;;;;;20527581;28;20117;-40
2023/01/05 19:06:04;;;;;;;12.00;4.10;;;10.70;99.90;;;;;;20519337;28;20286;-40
2023/01/05 19:16:07;;;;;;;10.68;4.05;;;10.70;99.90;;;;;;20502544;28;20068;-40
2023/01/05 19:26:08;;;;;;;10.30;4.97;;;10.70;99.90;;;;;;20504156;28;20445;-40
2023/01/05 19:36:13;;;;;;;9.38;4.00;;;10.80;99.90;;;;;;20501869;28;20424;-41
2023/01/05 19:46:15;;;;;;;9.48;3.72;;;10.80;99.90;;;;;;20504599;28;20114;-41
2023/01/05 19:56:16;;;;;;;5.03;2.40;;;10.80;99.90;;;;;;20483635;28;21845;-41
2023/01/05 20:06:29;;;;;;;6.95;3.47;;;10.90;99.90;;;;;;20501196;28;20822;-41
2023/01/05 20:16:30;;;;;;;7.18;3.28;;;10.70;99.90;;;;;;20499744;28;20145;-41
2023/01/05 20:26:31;;;;;;;7.10;2.13;;;10.70;99.90;;;;;;20489474;28;20150;-41
2023/01/05 20:36:33;;;;;;;6.50;3.03;;;10.70;99.90;;;;;;20495213;28;20066;-41
2023/01/05 20:46:41;;;;;;;10.00;1.95;;;10.60;99.90;;;;;;20503346;28;20136;-41
2023/01/05 20:56:44;;;;;;;;;;;10.80;99.90;;;;;;20500744;28;20387;-41
2023/01/05 21:06:47;;;;;;;6.68;2.30;;;10.90;99.90;;;;;;20474578;28;20017;-41
2023/01/05 21:16:50;;;;;;;5.15;2.05;;;10.90;99.90;;;;;;20483697;28;21666;-41
2023/01/05 21:26:52;;;;;;;3.60;1.63;;;10.90;99.90;;;;;;20492357;28;20059;-41
2023/01/05 21:36:53;;;;;;;7.30;2.72;;;11.00;99.90;;;;;;20486387;28;20137;-40
2023/01/05 21:46:54;;;;;;;4.15;1.98;;;11.00;99.90;;;;;;20486541;28;20189;-41
2023/01/05 21:56:57;;;;;;;5.88;1.92;;;11.00;99.90;;;;;;20474764;28;20516;-41
2023/01/05 22:06:58;;;;;;;3.72;2.10;;;11.00;99.90;;;;;;20536041;28;20054;-41
2023/01/05 22:16:59;;;;;;;4.40;1.50;;;11.00;99.90;;;;;;20523148;28;20045;-41
2023/01/05 22:27:00;;;;;;;4.30;2.05;;;11.00;99.90;;;;;;20515761;28;20031;-41
2023/01/05 22:37:01;;;;;;;3.63;1.92;;;11.00;99.90;;;;;;20512498;28;20089;-41
2023/01/05 22:47:02;;;;;;;7.78;2.75;;;11.00;99.90;;;;;;20504504;28;20040;-40
2023/01/05 22:57:03;;;;;;;6.35;2.42;;;11.00;99.90;;;;;;20511411;28;20050;-41
2023/01/05 23:07:05;;;;;;;6.25;2.42;;;10.90;99.90;;;;;;20497764;28;20037;-41
2023/01/05 23:17:10;;;;;;;3.78;1.40;;;10.80;99.90;;;;;;20487115;28;20182;-41
2023/01/05 23:27:11;;;;;;;4.90;1.42;;;10.90;99.90;;;;;;20485912;28;20058;-41
2023/01/05 23:37:12;;;;;;;5.88;1.85;;;10.90;99.90;;;;;;20486288;28;20277;-41
2023/01/05 23:47:13;;;;;;;4.55;1.33;;;10.90;99.90;;;;;;20490723;28;20141;-41
2023/01/05 23:57:14;;;;;;;4.47;1.80;;;10.90;99.90;;;;;;20494543;28;20038;-41
